createdAt,value
2022-07-29T00:05:59.818Z,19.10
2022-07-29T00:13:32.372Z,18.20
2022-07-29T00:16:04.477Z,16.60
2022-07-29T00:18:32.775Z,17.50
2022-07-29T00:23:26.965Z,17.00
2022-07-29T00:28:21.068Z,17.80
2022-07-29T00:30:47.899Z,16.50
2022-07-29T00:35:45.967Z,16.60
2022-07-29T00:38:14.658Z,17.60
2022-07-29T00:45:38.301Z,18.90
2022-07-29T00:48:05.818Z,16.80
2022-07-29T00:50:33.318Z,17.50
2022-07-29T00:53:00.715Z,18.10
2022-07-29T00:55:28.129Z,18.70
2022-07-29T01:00:25.528Z,17.40
2022-07-29T01:02:52.628Z,18.40
2022-07-29T01:05:22.261Z,17.40
2022-07-29T01:07:52.559Z,18.20
2022-07-29T01:10:21.859Z,16.10
2022-07-29T01:12:51.022Z,16.10
2022-07-29T01:20:44.364Z,17.20
2022-07-29T01:23:32.675Z,17.20
2022-07-29T01:26:04.913Z,15.90
2022-07-29T01:28:57.097Z,18.40
2022-07-29T01:31:45.361Z,17.10
2022-07-29T01:35:10.622Z,16.60
2022-07-29T01:37:48.858Z,17.10
2022-07-29T01:40:29.980Z,15.80
2022-07-29T01:43:00.673Z,17.00
2022-07-29T01:45:44.136Z,15.70
2022-07-29T01:48:22.328Z,17.00
2022-07-29T01:50:58.356Z,18.30
2022-07-29T01:53:45.659Z,17.00
2022-07-29T01:56:14.328Z,17.30
2022-07-29T01:58:44.249Z,17.10
2022-07-29T02:01:13.564Z,16.90
2022-07-29T02:03:45.070Z,17.00
2022-07-29T02:06:13.429Z,16.90
2022-07-29T02:08:41.333Z,17.30
2022-07-29T02:11:09.685Z,17.00
2022-07-29T02:13:38.852Z,18.20
2022-07-29T02:16:08.360Z,15.80
2022-07-29T02:18:38.253Z,16.50
2022-07-29T02:21:06.146Z,17.00
2022-07-29T02:26:23.334Z,18.20
2022-07-29T02:28:53.408Z,16.90
2022-07-29T02:31:24.135Z,15.80
2022-07-29T02:33:52.715Z,16.90
2022-07-29T02:36:21.953Z,17.00
2022-07-29T02:38:54.394Z,18.10
2022-07-29T02:41:47.750Z,17.30
2022-07-29T02:44:17.967Z,16.90
2022-07-29T02:46:52.992Z,16.90
2022-07-29T02:49:41.776Z,18.20
2022-07-29T02:52:22.750Z,15.80
2022-07-29T02:55:11.220Z,15.80
2022-07-29T02:57:54.126Z,15.60
2022-07-29T03:00:25.158Z,16.00
2022-07-29T03:02:54.607Z,16.80
2022-07-29T03:05:23.446Z,15.50
2022-07-29T03:07:58.302Z,16.80
2022-07-29T03:10:28.229Z,16.30
2022-07-29T03:12:56.953Z,16.80
2022-07-29T03:15:24.851Z,18.10
2022-07-29T03:17:53.268Z,16.80
2022-07-29T03:25:20.356Z,15.60
2022-07-29T03:30:21.941Z,18.20
2022-07-29T03:32:52.085Z,15.60
2022-07-29T03:37:47.512Z,18.10
2022-07-29T03:40:34.625Z,15.40
2022-07-29T03:43:02.997Z,16.70
2022-07-29T03:45:31.664Z,16.70
2022-07-29T03:48:03.027Z,16.80
2022-07-29T03:50:31.868Z,16.70
2022-07-29T03:52:59.134Z,15.50
2022-07-29T03:55:27.663Z,16.90
2022-07-29T03:57:56.618Z,16.70
2022-07-29T04:00:25.409Z,18.10
2022-07-29T04:07:48.709Z,16.90
2022-07-29T04:10:16.791Z,16.70
2022-07-29T04:15:12.325Z,17.10
2022-07-29T04:17:39.889Z,15.50
2022-07-29T04:20:07.121Z,17.70
2022-07-29T04:22:34.085Z,15.70
2022-07-29T04:25:03.903Z,15.90
2022-07-29T04:27:31.246Z,17.00
2022-07-29T04:32:26.232Z,15.40
2022-07-29T04:39:47.560Z,17.60
2022-07-29T04:44:44.174Z,15.70
2022-07-29T04:49:41.464Z,16.60
2022-07-29T04:52:08.220Z,15.90
2022-07-29T04:57:02.166Z,16.30
2022-07-29T04:59:28.984Z,16.90
2022-07-29T05:01:55.852Z,18.30
2022-07-29T05:11:45.156Z,17.80
2022-07-29T05:14:12.168Z,18.30
2022-07-29T05:16:40.987Z,17.30
2022-07-29T05:19:13.689Z,18.50
2022-07-29T05:24:09.010Z,16.10
2022-07-29T05:26:35.872Z,18.20
2022-07-29T05:29:02.736Z,17.20
2022-07-29T05:31:29.617Z,18.70
2022-07-29T05:33:56.616Z,18.60
2022-07-29T05:36:23.438Z,16.10
2022-07-29T05:41:19.101Z,18.50
2022-07-29T05:48:41.774Z,16.20
2022-07-29T05:51:08.609Z,18.60
2022-07-29T05:56:06.750Z,16.30
2022-07-29T05:58:34.182Z,16.30
2022-07-29T06:01:01.570Z,17.50
2022-07-29T06:08:23.103Z,18.40
2022-07-29T06:13:17.176Z,19.00
2022-07-29T06:20:38.685Z,18.10
2022-07-29T06:23:05.484Z,18.10
2022-07-29T06:25:35.684Z,17.60
2022-07-29T06:28:02.517Z,17.20
2022-07-29T06:30:29.784Z,17.10
2022-07-29T06:32:56.721Z,16.80
2022-07-29T06:41:03.129Z,17.90
2022-07-29T06:43:35.834Z,18.20
2022-07-29T06:46:19.077Z,17.00
2022-07-29T06:48:46.772Z,18.70
2022-07-29T06:51:13.653Z,17.30
2022-07-29T06:53:40.849Z,19.20
2022-07-29T07:03:48.883Z,18.00
2022-07-29T07:08:43.009Z,18.10
2022-07-29T07:13:37.113Z,19.80
2022-07-29T07:16:04.935Z,18.80
2022-07-29T07:18:31.996Z,18.90
2022-07-29T07:20:59.037Z,19.70
2022-07-29T07:28:24.475Z,21.00
2022-07-29T07:30:52.621Z,21.70
2022-07-29T07:38:14.257Z,19.30
2022-07-29T07:43:08.566Z,20.80
2022-07-29T07:48:05.551Z,22.10
2022-07-29T07:50:32.395Z,21.20
2022-07-29T07:55:27.269Z,20.70
2022-07-29T08:00:23.006Z,20.80
2022-07-29T08:02:51.434Z,22.20
2022-07-29T08:07:47.504Z,22.50
2022-07-29T08:10:16.259Z,19.90
2022-07-29T08:15:12.120Z,22.10
2022-07-29T08:17:38.925Z,22.40
2022-07-29T08:20:06.284Z,22.10
2022-07-29T08:22:33.122Z,21.50
2022-07-29T08:24:59.913Z,23.20
2022-07-29T08:27:44.769Z,22.60
2022-07-29T08:32:55.643Z,20.70
2022-07-29T08:35:24.291Z,20.90
2022-07-29T08:37:51.565Z,22.50
2022-07-29T08:40:18.489Z,21.70
2022-07-29T08:42:46.042Z,21.70
2022-07-29T08:45:13.494Z,23.20
2022-07-29T08:47:40.916Z,21.70
2022-07-29T08:50:11.376Z,22.70
2022-07-29T08:52:41.030Z,23.20
2022-07-29T08:55:09.802Z,24.80
2022-07-29T08:57:37.432Z,23.50
2022-07-29T09:00:11.683Z,22.10
2022-07-29T09:02:46.908Z,24.70
2022-07-29T09:05:15.387Z,24.20
2022-07-29T09:07:44.276Z,23.70
2022-07-29T09:10:11.535Z,22.30
2022-07-29T09:12:38.924Z,25.00
2022-07-29T09:15:06.356Z,24.10
2022-07-29T09:17:44.704Z,24.30
2022-07-29T09:20:13.828Z,24.40
2022-07-29T09:22:42.239Z,26.10
2022-07-29T09:25:12.870Z,25.00
2022-07-29T09:27:40.221Z,25.30
2022-07-29T09:30:13.363Z,26.10
2022-07-29T09:32:57.624Z,25.90
2022-07-29T09:35:27.184Z,25.80
2022-07-29T09:37:55.104Z,24.90
2022-07-29T09:40:27.902Z,27.10
2022-07-29T09:42:59.220Z,27.30
2022-07-29T09:45:29.293Z,27.10
2022-07-29T09:47:58.350Z,27.00
2022-07-29T09:50:36.872Z,27.30
2022-07-29T09:53:03.755Z,26.00
2022-07-29T09:55:30.654Z,26.20
2022-07-29T09:58:18.103Z,26.70
2022-07-29T10:00:46.708Z,26.40
2022-07-29T10:03:14.778Z,25.80
2022-07-29T10:05:43.014Z,26.30
2022-07-29T10:08:11.058Z,26.40
2022-07-29T10:10:42.388Z,28.00
2022-07-29T10:13:15.448Z,27.20
2022-07-29T10:15:46.177Z,27.00
2022-07-29T10:18:15.112Z,28.70
2022-07-29T10:20:43.408Z,28.20
2022-07-29T10:23:10.905Z,28.60
2022-07-29T10:25:37.956Z,30.20
2022-07-29T10:28:07.053Z,29.00
2022-07-29T10:30:34.183Z,29.50
2022-07-29T10:33:31.449Z,29.80
2022-07-29T10:36:25.150Z,29.90
2022-07-29T10:39:23.322Z,29.80
2022-07-29T10:42:05.431Z,29.20
2022-07-29T10:44:34.254Z,29.80
2022-07-29T10:47:02.126Z,30.90
2022-07-29T10:49:31.149Z,30.00
2022-07-29T10:52:00.109Z,30.10
2022-07-29T10:54:47.347Z,29.80
2022-07-29T10:57:17.551Z,29.70
2022-07-29T11:00:06.458Z,29.60
2022-07-29T11:02:42.682Z,29.70
2022-07-29T11:05:20.230Z,29.30
2022-07-29T11:08:20.092Z,29.40
2022-07-29T11:10:49.208Z,30.10
2022-07-29T11:13:54.083Z,29.20
2022-07-29T11:16:24.994Z,29.00
2022-07-29T11:19:13.924Z,29.10
2022-07-29T11:21:53.978Z,29.50
2022-07-29T11:24:30.247Z,30.00
2022-07-29T11:27:10.990Z,30.20
2022-07-29T11:30:03.254Z,30.60
2022-07-29T11:32:48.455Z,30.90
2022-07-29T11:35:27.725Z,31.20
2022-07-29T11:38:23.577Z,31.50
2022-07-29T11:41:17.997Z,31.90
2022-07-29T11:43:50.838Z,32.40
2022-07-29T11:46:38.725Z,32.50
2022-07-29T11:49:09.192Z,32.70
2022-07-29T11:51:48.737Z,32.90
2022-07-29T11:54:27.225Z,33.10
2022-07-29T11:56:54.922Z,33.20
2022-07-29T11:59:22.497Z,33.10
2022-07-29T12:02:33.009Z,32.40
2022-07-29T12:04:55.760Z,33.80
2022-07-29T12:07:35.651Z,33.60
2022-07-29T12:10:03.985Z,33.70
2022-07-29T12:12:34.342Z,34.00
2022-07-29T12:15:20.897Z,34.00
2022-07-29T12:17:49.340Z,34.00
2022-07-29T12:20:24.944Z,34.10
2022-07-29T12:22:54.548Z,34.10
2022-07-29T12:25:39.031Z,33.90
2022-07-29T12:28:14.238Z,34.00
2022-07-29T12:30:52.687Z,34.10
2022-07-29T12:33:28.638Z,34.30
2022-07-29T12:36:07.483Z,33.40
2022-07-29T12:38:35.820Z,34.30
2022-07-29T12:41:04.358Z,34.60
2022-07-29T12:43:32.300Z,34.50
2022-07-29T12:46:12.228Z,34.10
2022-07-29T12:48:41.629Z,34.10
2022-07-29T12:51:10.008Z,34.10
2022-07-29T12:53:37.961Z,35.40
2022-07-29T12:56:20.728Z,35.50
2022-07-29T12:58:52.941Z,34.70
2022-07-29T13:01:21.682Z,34.80
2022-07-29T13:03:59.743Z,34.70
2022-07-29T13:06:45.873Z,34.40
2022-07-29T13:09:23.339Z,34.30
2022-07-29T13:11:52.649Z,34.50
2022-07-29T13:14:33.118Z,35.10
2022-07-29T13:17:05.570Z,35.60
2022-07-29T13:19:35.204Z,36.20
2022-07-29T13:22:02.067Z,36.40
2022-07-29T13:24:29.082Z,36.70
2022-07-29T13:26:57.005Z,37.10
2022-07-29T13:29:25.777Z,37.50
2022-07-29T13:31:56.277Z,37.60
2022-07-29T13:34:25.136Z,37.40
2022-07-29T13:36:52.028Z,36.90
2022-07-29T13:39:18.922Z,36.00
2022-07-29T13:41:45.699Z,35.50
2022-07-29T13:44:12.499Z,35.40
2022-07-29T13:46:39.433Z,35.90
2022-07-29T13:49:07.019Z,36.30
2022-07-29T13:51:33.920Z,36.50
2022-07-29T13:54:00.743Z,36.20
2022-07-29T13:56:27.572Z,36.80
2022-07-29T13:58:54.351Z,36.40
2022-07-29T14:01:21.519Z,36.30
2022-07-29T14:03:48.359Z,36.50
2022-07-29T14:06:15.201Z,36.70
2022-07-29T14:08:42.183Z,37.10
2022-07-29T14:11:08.947Z,37.60
2022-07-29T14:13:35.922Z,37.90
2022-07-29T14:16:02.761Z,38.10
2022-07-29T14:18:29.606Z,38.20
2022-07-29T14:20:56.425Z,38.00
2022-07-29T14:23:23.238Z,37.90
2022-07-29T14:25:50.057Z,37.90
2022-07-29T14:28:16.996Z,38.00
2022-07-29T14:30:44.222Z,38.00
2022-07-29T14:33:11.269Z,38.10
2022-07-29T14:35:39.453Z,38.30
2022-07-29T14:38:06.263Z,38.40
2022-07-29T14:40:33.173Z,36.80
2022-07-29T14:42:59.991Z,37.80
2022-07-29T14:45:26.944Z,37.40
2022-07-29T14:47:57.275Z,37.00
2022-07-29T14:50:31.381Z,36.60
2022-07-29T14:52:59.373Z,36.20
2022-07-29T14:55:26.603Z,35.80
2022-07-29T14:58:03.058Z,35.50
2022-07-29T15:00:34.894Z,35.40
2022-07-29T15:03:03.072Z,35.20
2022-07-29T15:05:33.289Z,35.20
2022-07-29T15:08:00.720Z,35.10
2022-07-29T15:10:28.176Z,34.90
2022-07-29T15:12:55.938Z,35.00
2022-07-29T15:15:22.776Z,35.10
2022-07-29T15:17:49.535Z,34.90
2022-07-29T15:20:16.547Z,35.10
2022-07-29T15:22:43.920Z,35.30
2022-07-29T15:25:11.034Z,35.40
2022-07-29T15:27:37.829Z,35.50
2022-07-29T15:30:05.172Z,35.20
2022-07-29T15:32:31.998Z,35.30
2022-07-29T15:34:58.750Z,35.20
2022-07-29T15:37:25.798Z,35.20
2022-07-29T15:39:55.026Z,35.20
2022-07-29T15:42:23.809Z,36.50
2022-07-29T15:44:50.587Z,35.20
2022-07-29T15:47:17.694Z,35.50
2022-07-29T15:49:47.763Z,35.50
2022-07-29T15:52:25.002Z,33.50
2022-07-29T15:54:57.542Z,34.90
2022-07-29T15:57:25.193Z,34.90
2022-07-29T15:59:52.167Z,34.80
2022-07-29T16:02:19.651Z,34.60
2022-07-29T16:04:47.172Z,34.40
2022-07-29T16:07:14.372Z,34.20
2022-07-29T16:09:41.850Z,33.70
2022-07-29T16:12:15.335Z,33.30
2022-07-29T16:14:43.706Z,33.10
2022-07-29T16:17:14.734Z,33.20
2022-07-29T16:19:43.445Z,33.50
2022-07-29T16:22:10.471Z,33.70
2022-07-29T16:24:37.496Z,31.80
2022-07-29T16:27:04.855Z,33.10
2022-07-29T16:29:31.604Z,33.00
2022-07-29T16:31:58.614Z,32.90
2022-07-29T16:34:25.477Z,33.00
2022-07-29T16:36:52.344Z,32.90
2022-07-29T16:39:19.126Z,32.70
2022-07-29T16:41:45.911Z,32.70
2022-07-29T16:44:12.721Z,32.60
2022-07-29T16:46:41.415Z,32.50
2022-07-29T16:49:08.469Z,32.50
2022-07-29T16:51:35.301Z,32.60
2022-07-29T16:54:02.058Z,32.80
2022-07-29T16:56:28.827Z,31.90
2022-07-29T16:58:57.869Z,31.80
2022-07-29T17:01:24.693Z,32.00
2022-07-29T17:04:06.757Z,31.70
2022-07-29T17:06:38.021Z,31.60
2022-07-29T17:09:06.756Z,31.30
2022-07-29T17:11:52.453Z,31.30
2022-07-29T17:14:29.457Z,30.30
2022-07-29T17:17:01.019Z,31.60
2022-07-29T17:19:33.877Z,32.10
2022-07-29T17:22:09.414Z,33.10
2022-07-29T17:24:38.901Z,31.90
2022-07-29T17:27:08.717Z,32.00
2022-07-29T17:29:35.601Z,31.90
2022-07-29T17:32:02.568Z,31.90
2022-07-29T17:34:29.331Z,31.60
2022-07-29T17:36:56.618Z,31.80
2022-07-29T17:39:23.885Z,30.70
2022-07-29T17:41:50.678Z,31.30
2022-07-29T17:44:17.454Z,31.30
2022-07-29T17:46:44.350Z,31.20
2022-07-29T17:49:11.454Z,30.80
2022-07-29T17:51:38.368Z,30.00
2022-07-29T17:54:05.249Z,30.30
2022-07-29T17:56:32.141Z,29.00
2022-07-29T17:59:01.483Z,30.40
2022-07-29T18:01:29.038Z,31.00
2022-07-29T18:03:59.811Z,28.90
2022-07-29T18:06:27.124Z,30.60
2022-07-29T18:08:54.343Z,29.90
2022-07-29T18:11:22.283Z,29.90
2022-07-29T18:13:49.221Z,30.60
2022-07-29T18:16:16.058Z,29.70
2022-07-29T18:18:45.006Z,29.50
2022-07-29T18:21:11.957Z,29.40
2022-07-29T18:23:38.916Z,28.00
2022-07-29T18:26:05.771Z,28.70
2022-07-29T18:28:32.892Z,28.60
2022-07-29T18:31:00.571Z,28.90
2022-07-29T18:33:27.828Z,28.60
2022-07-29T18:36:07.639Z,28.60
2022-07-29T18:38:38.504Z,28.50
2022-07-29T18:41:05.293Z,28.00
2022-07-29T18:43:32.085Z,29.00
2022-07-29T18:45:58.861Z,27.40
2022-07-29T18:48:25.651Z,28.10
2022-07-29T18:50:52.441Z,28.30
2022-07-29T18:53:19.325Z,25.80
2022-07-29T18:55:46.148Z,26.60
2022-07-29T18:58:12.964Z,27.00
2022-07-29T19:00:39.719Z,25.40
2022-07-29T19:03:08.856Z,25.70
2022-07-29T19:05:35.761Z,25.50
2022-07-29T19:08:02.620Z,24.80
2022-07-29T19:10:30.391Z,24.80
2022-07-29T19:12:57.830Z,26.70
2022-07-29T19:15:24.894Z,26.10
2022-07-29T19:22:46.387Z,26.50
2022-07-29T19:25:13.269Z,25.20
2022-07-29T19:30:09.667Z,23.40
2022-07-29T19:32:37.320Z,25.40
2022-07-29T19:35:23.600Z,26.60
2022-07-29T19:37:51.353Z,23.40
2022-07-29T19:40:18.233Z,24.70
2022-07-29T19:42:45.228Z,25.20
2022-07-29T19:45:12.115Z,24.40
2022-07-29T19:47:38.889Z,22.80
2022-07-29T19:50:06.825Z,24.80
2022-07-29T19:52:33.876Z,23.30
2022-07-29T19:55:06.856Z,25.60
2022-07-29T19:57:37.874Z,25.20
2022-07-29T20:00:11.161Z,24.40
2022-07-29T20:02:39.395Z,24.10
2022-07-29T20:05:07.088Z,25.10
2022-07-29T20:07:34.226Z,22.70
2022-07-29T20:10:01.229Z,22.30
2022-07-29T20:12:28.037Z,24.80
2022-07-29T20:14:54.900Z,23.00
2022-07-29T20:17:24.817Z,22.10
2022-07-29T20:19:52.841Z,23.20
2022-07-29T20:22:21.063Z,23.80
2022-07-29T20:24:48.655Z,23.90
2022-07-29T20:27:15.578Z,24.50
2022-07-29T20:29:42.417Z,24.30
2022-07-29T20:32:09.253Z,22.10
2022-07-29T20:41:57.991Z,23.90
2022-07-29T20:46:52.209Z,23.00
2022-07-29T20:49:19.177Z,23.30
2022-07-29T20:51:46.060Z,23.50
2022-07-29T20:56:41.338Z,22.30
2022-07-29T20:59:08.964Z,21.00
2022-07-29T21:01:36.126Z,22.90
2022-07-29T21:06:31.059Z,20.80
2022-07-29T21:08:59.426Z,21.00
2022-07-29T21:11:43.274Z,23.00
2022-07-29T21:14:20.086Z,21.10
2022-07-29T21:16:46.888Z,20.60
2022-07-29T21:24:08.305Z,20.40
2022-07-29T21:29:06.087Z,20.40
2022-07-29T21:34:00.018Z,20.80
2022-07-29T21:39:13.942Z,20.10
2022-07-29T21:41:40.800Z,22.40
2022-07-29T21:51:30.654Z,20.00
2022-07-29T21:56:27.526Z,21.00
2022-07-29T21:58:55.512Z,19.60
2022-07-29T22:01:22.420Z,19.50
2022-07-29T22:03:49.339Z,19.50
2022-07-29T22:06:16.704Z,20.30
2022-07-29T22:08:45.665Z,20.20
2022-07-29T22:11:13.180Z,21.60
2022-07-29T22:13:40.035Z,19.20
2022-07-29T22:18:34.155Z,20.70
2022-07-29T22:25:55.500Z,19.00
2022-07-29T22:35:49.025Z,18.80
2022-07-29T22:38:17.507Z,19.90
2022-07-29T22:43:12.335Z,19.20
2022-07-29T22:48:06.582Z,19.40
2022-07-29T22:50:33.820Z,18.60
2022-07-29T22:57:54.952Z,18.70
2022-07-29T23:00:21.769Z,18.70
2022-07-29T23:05:16.060Z,19.30
2022-07-29T23:07:43.003Z,19.10
2022-07-29T23:10:10.409Z,18.40
2022-07-29T23:15:06.028Z,20.70
2022-07-29T23:17:36.306Z,18.40
2022-07-29T23:20:06.779Z,19.10
2022-07-29T23:22:34.043Z,18.10
2022-07-29T23:29:56.238Z,17.80
2022-07-29T23:32:23.020Z,17.80
2022-07-29T23:37:16.981Z,20.40
2022-07-29T23:49:32.571Z,17.80
